sensor_id;sensor_type;location;lat;lon;timestamp;pressure;altitude;pressure_sealevel;temperature;humidity
3812;BME280;1921;49.368;11.068;2023-09-19T00:00:38;97203.34;;;17.36;100.00
3812;BME280;1921;49.368;11.068;2023-09-19T00:03:06;97185.00;;;17.18;100.00
3812;BME280;1921;49.368;11.068;2023-09-19T00:05:35;97176.06;;;17.07;100.00
3812;BME280;1921;49.368;11.068;2023-09-19T00:08:02;97178.38;;;17.04;100.00
3812;BME280;1921;49.368;11.068;2023-09-19T00:10:32;97178.22;;;16.75;100.00
3812;BME280;1921;49.368;11.068;2023-09-19T00:13:02;97169.59;;;16.68;100.00
3812;BME280;1921;49.368;11.068;2023-09-19T00:15:38;97169.47;;;16.63;100.00
3812;BME280;1921;49.368;11.068;2023-09-19T00:18:05;97190.66;;;16.68;100.00
3812;BME280;1921;49.368;11.068;2023-09-19T00:20:32;97194.03;;;16.75;100.00
3812;BME280;1921;49.368;11.068;2023-09-19T00:23:00;97181.88;;;16.74;100.00
3812;BME280;1921;49.368;11.068;2023-09-19T00:25:34;97174.91;;;16.80;100.00
3812;BME280;1921;49.368;11.068;2023-09-19T00:28:01;97181.34;;;16.84;100.00
3812;BME280;1921;49.368;11.068;2023-09-19T00:30:27;97150.38;;;16.67;100.00
3812;BME280;1921;49.368;11.068;2023-09-19T00:32:52;97176.53;;;16.92;100.00
3812;BME280;1921;49.368;11.068;2023-09-19T00:35:18;97217.91;;;17.15;100.00
3812;BME280;1921;49.368;11.068;2023-09-19T00:37:44;97101.56;;;16.30;100.00
3812;BME280;1921;49.368;11.068;2023-09-19T00:40:11;97113.84;;;16.48;100.00
3812;BME280;1921;49.368;11.068;2023-09-19T00:42:42;97197.84;;;16.91;100.00
3812;BME280;1921;49.368;11.068;2023-09-19T00:45:09;97214.44;;;16.91;100.00
3812;BME280;1921;49.368;11.068;2023-09-19T00:47:41;97239.63;;;16.99;100.00
3812;BME280;1921;49.368;11.068;2023-09-19T00:50:08;97200.78;;;16.71;100.00
3812;BME280;1921;49.368;11.068;2023-09-19T00:52:35;97226.13;;;16.84;100.00
3812;BME280;1921;49.368;11.068;2023-09-19T00:55:07;97208.72;;;16.64;100.00
3812;BME280;1921;49.368;11.068;2023-09-19T00:57:34;97210.69;;;16.69;100.00
3812;BME280;1921;49.368;11.068;2023-09-19T01:00:02;97183.41;;;16.52;100.00
3812;BME280;1921;49.368;11.068;2023-09-19T01:02:32;97265.06;;;16.93;100.00
3812;BME280;1921;49.368;11.068;2023-09-19T01:04:59;97254.75;;;16.92;100.00
3812;BME280;1921;49.368;11.068;2023-09-19T01:07:29;97246.81;;;16.80;100.00
3812;BME280;1921;49.368;11.068;2023-09-19T01:10:18;97261.16;;;16.84;100.00
3812;BME280;1921;49.368;11.068;2023-09-19T01:18:29;97242.91;;;16.83;100.00
3812;BME280;1921;49.368;11.068;2023-09-19T01:24:08;97261.66;;;17.05;100.00
3812;BME280;1921;49.368;11.068;2023-09-19T01:29:47;97252.28;;;17.09;100.00
3812;BME280;1921;49.368;11.068;2023-09-19T01:32:20;97232.91;;;17.03;100.00
3812;BME280;1921;49.368;11.068;2023-09-19T01:34:56;97243.09;;;17.11;100.00
3812;BME280;1921;49.368;11.068;2023-09-19T01:37:25;97237.00;;;16.99;100.00
3812;BME280;1921;49.368;11.068;2023-09-19T01:40:23;97263.03;;;17.31;100.00
3812;BME280;1921;49.368;11.068;2023-09-19T01:48:46;97211.50;;;16.69;100.00
3812;BME280;1921;49.368;11.068;2023-09-19T01:51:21;97249.59;;;16.85;100.00
3812;BME280;1921;49.368;11.068;2023-09-19T01:54:06;97203.13;;;16.61;100.00
3812;BME280;1921;49.368;11.068;2023-09-19T01:56:36;97267.94;;;17.04;100.00
3812;BME280;1921;49.368;11.068;2023-09-19T01:59:24;97252.44;;;16.84;100.00
3812;BME280;1921;49.368;11.068;2023-09-19T02:01:54;97272.63;;;16.90;100.00
3812;BME280;1921;49.368;11.068;2023-09-19T02:04:21;97202.66;;;16.52;100.00
3812;BME280;1921;49.368;11.068;2023-09-19T02:06:47;97253.03;;;16.86;100.00
3812;BME280;1921;49.368;11.068;2023-09-19T02:09:14;97277.44;;;17.05;100.00
3812;BME280;1921;49.368;11.068;2023-09-19T02:11:40;97205.28;;;16.64;100.00
3812;BME280;1921;49.368;11.068;2023-09-19T02:14:08;97253.94;;;16.91;100.00
3812;BME280;1921;49.368;11.068;2023-09-19T02:16:34;97239.63;;;16.87;100.00
3812;BME280;1921;49.368;11.068;2023-09-19T02:19:00;97256.38;;;17.05;100.00
3812;BME280;1921;49.368;11.068;2023-09-19T02:21:26;97249.28;;;17.05;100.00
3812;BME280;1921;49.368;11.068;2023-09-19T02:23:55;97250.97;;;17.00;100.00
3812;BME280;1921;49.368;11.068;2023-09-19T02:26:21;97238.03;;;16.98;100.00
3812;BME280;1921;49.368;11.068;2023-09-19T02:28:50;97246.88;;;17.04;100.00
3812;BME280;1921;49.368;11.068;2023-09-19T02:31:15;97280.47;;;17.32;100.00
3812;BME280;1921;49.368;11.068;2023-09-19T02:33:42;97252.97;;;17.16;100.00
3812;BME280;1921;49.368;11.068;2023-09-19T02:36:08;97281.25;;;17.32;100.00
3812;BME280;1921;49.368;11.068;2023-09-19T02:38:34;97283.56;;;17.29;100.00
3812;BME280;1921;49.368;11.068;2023-09-19T02:41:00;97262.69;;;17.15;100.00
3812;BME280;1921;49.368;11.068;2023-09-19T02:43:27;97303.28;;;17.38;100.00
3812;BME280;1921;49.368;11.068;2023-09-19T02:45:53;97246.28;;;17.02;100.00
3812;BME280;1921;49.368;11.068;2023-09-19T02:48:19;97296.06;;;17.33;100.00
3812;BME280;1921;49.368;11.068;2023-09-19T02:50:54;97274.38;;;17.19;100.00
3812;BME280;1921;49.368;11.068;2023-09-19T02:53:20;97293.31;;;17.28;100.00
3812;BME280;1921;49.368;11.068;2023-09-19T02:55:46;97307.31;;;17.40;100.00
3812;BME280;1921;49.368;11.068;2023-09-19T02:58:12;97302.94;;;17.34;100.00
3812;BME280;1921;49.368;11.068;2023-09-19T03:00:41;97279.31;;;17.16;100.00
3812;BME280;1921;49.368;11.068;2023-09-19T03:03:08;97291.72;;;17.27;100.00
3812;BME280;1921;49.368;11.068;2023-09-19T03:05:34;97286.97;;;17.17;100.00
3812;BME280;1921;49.368;11.068;2023-09-19T03:08:00;97333.09;;;17.50;100.00
3812;BME280;1921;49.368;11.068;2023-09-19T03:10:27;97279.06;;;17.17;100.00
3812;BME280;1921;49.368;11.068;2023-09-19T03:12:53;97302.00;;;17.29;100.00
3812;BME280;1921;49.368;11.068;2023-09-19T03:15:19;97293.53;;;17.27;100.00
3812;BME280;1921;49.368;11.068;2023-09-19T03:17:46;97296.19;;;17.27;100.00
3812;BME280;1921;49.368;11.068;2023-09-19T03:20:13;97312.22;;;17.37;100.00
3812;BME280;1921;49.368;11.068;2023-09-19T03:22:40;97294.91;;;17.29;100.00
3812;BME280;1921;49.368;11.068;2023-09-19T03:25:07;97297.06;;;17.32;100.00
3812;BME280;1921;49.368;11.068;2023-09-19T03:27:37;97300.31;;;17.34;100.00
3812;BME280;1921;49.368;11.068;2023-09-19T03:30:04;97263.94;;;17.13;100.00
3812;BME280;1921;49.368;11.068;2023-09-19T03:32:36;97330.69;;;17.48;100.00
3812;BME280;1921;49.368;11.068;2023-09-19T03:35:03;97296.03;;;17.10;100.00
3812;BME280;1921;49.368;11.068;2023-09-19T03:37:32;97307.41;;;17.22;100.00
3812;BME280;1921;49.368;11.068;2023-09-19T03:39:59;97296.97;;;17.15;100.00
3812;BME280;1921;49.368;11.068;2023-09-19T03:42:25;97316.66;;;17.25;100.00
3812;BME280;1921;49.368;11.068;2023-09-19T03:44:52;97328.50;;;17.34;100.00
3812;BME280;1921;49.368;11.068;2023-09-19T03:47:18;97353.84;;;17.46;100.00
3812;BME280;1921;49.368;11.068;2023-09-19T03:49:46;97342.13;;;17.42;100.00
3812;BME280;1921;49.368;11.068;2023-09-19T03:52:12;97300.72;;;17.19;100.00
3812;BME280;1921;49.368;11.068;2023-09-19T03:54:38;97287.78;;;17.18;100.00
3812;BME280;1921;49.368;11.068;2023-09-19T03:57:05;97329.53;;;17.44;100.00
3812;BME280;1921;49.368;11.068;2023-09-19T03:59:31;97306.47;;;17.28;100.00
3812;BME280;1921;49.368;11.068;2023-09-19T04:01:57;97307.06;;;17.30;100.00
3812;BME280;1921;49.368;11.068;2023-09-19T04:04:23;97298.69;;;17.21;100.00
3812;BME280;1921;49.368;11.068;2023-09-19T04:06:51;97303.34;;;17.08;100.00
3812;BME280;1921;49.368;11.068;2023-09-19T04:09:17;97308.59;;;17.08;100.00
3812;BME280;1921;49.368;11.068;2023-09-19T04:11:42;97302.06;;;16.99;100.00
3812;BME280;1921;49.368;11.068;2023-09-19T04:14:08;97317.78;;;17.05;100.00
3812;BME280;1921;49.368;11.068;2023-09-19T04:16:34;97277.56;;;16.68;100.00
3812;BME280;1921;49.368;11.068;2023-09-19T04:18:59;97266.03;;;16.51;100.00
3812;BME280;1921;49.368;11.068;2023-09-19T04:21:25;97311.97;;;16.73;100.00
3812;BME280;1921;49.368;11.068;2023-09-19T04:23:52;97307.28;;;16.57;100.00
3812;BME280;1921;49.368;11.068;2023-09-19T04:26:17;97296.69;;;16.45;100.00
3812;BME280;1921;49.368;11.068;2023-09-19T04:28:43;97335.56;;;16.61;100.00
3812;BME280;1921;49.368;11.068;2023-09-19T04:31:09;97309.94;;;16.38;100.00
3812;BME280;1921;49.368;11.068;2023-09-19T04:33:37;97376.91;;;16.61;100.00
3812;BME280;1921;49.368;11.068;2023-09-19T04:36:03;97385.38;;;16.63;100.00
3812;BME280;1921;49.368;11.068;2023-09-19T04:38:31;97346.44;;;16.35;100.00
3812;BME280;1921;49.368;11.068;2023-09-19T04:40:57;97329.25;;;16.14;100.00
3812;BME280;1921;49.368;11.068;2023-09-19T04:43:24;97325.88;;;16.07;100.00
3812;BME280;1921;49.368;11.068;2023-09-19T04:45:50;97375.66;;;16.27;100.00
3812;BME280;1921;49.368;11.068;2023-09-19T04:48:16;97265.31;;;15.52;100.00
3812;BME280;1921;49.368;11.068;2023-09-19T04:50:43;97304.22;;;15.68;100.00
3812;BME280;1921;49.368;11.068;2023-09-19T04:53:09;97378.00;;;16.17;100.00
3812;BME280;1921;49.368;11.068;2023-09-19T04:55:35;97350.28;;;15.96;100.00
3812;BME280;1921;49.368;11.068;2023-09-19T04:58:01;97368.13;;;16.12;100.00
3812;BME280;1921;49.368;11.068;2023-09-19T05:00:28;97370.38;;;16.27;100.00
3812;BME280;1921;49.368;11.068;2023-09-19T05:02:57;97342.13;;;16.22;100.00
3812;BME280;1921;49.368;11.068;2023-09-19T05:05:23;97370.91;;;16.35;100.00
3812;BME280;1921;49.368;11.068;2023-09-19T05:07:50;97376.44;;;16.46;100.00
3812;BME280;1921;49.368;11.068;2023-09-19T05:10:17;97352.84;;;16.39;100.00
3812;BME280;1921;49.368;11.068;2023-09-19T05:12:44;97354.41;;;16.47;100.00
3812;BME280;1921;49.368;11.068;2023-09-19T05:15:13;97351.06;;;16.51;100.00
3812;BME280;1921;49.368;11.068;2023-09-19T05:17:40;97350.91;;;16.64;100.00
3812;BME280;1921;49.368;11.068;2023-09-19T05:20:06;97365.34;;;16.80;100.00
3812;BME280;1921;49.368;11.068;2023-09-19T05:22:42;97379.59;;;16.91;100.00
3812;BME280;1921;49.368;11.068;2023-09-19T05:25:09;97371.53;;;16.86;100.00
3812;BME280;1921;49.368;11.068;2023-09-19T05:27:35;97367.31;;;16.85;100.00
3812;BME280;1921;49.368;11.068;2023-09-19T05:30:01;97383.75;;;16.99;100.00
3812;BME280;1921;49.368;11.068;2023-09-19T05:32:27;97399.38;;;17.12;100.00
3812;BME280;1921;49.368;11.068;2023-09-19T05:34:53;97357.13;;;16.88;100.00
3812;BME280;1921;49.368;11.068;2023-09-19T05:37:19;97370.03;;;17.08;100.00
3812;BME280;1921;49.368;11.068;2023-09-19T05:39:45;97413.06;;;17.32;100.00
3812;BME280;1921;49.368;11.068;2023-09-19T05:42:11;97391.41;;;17.30;100.00
3812;BME280;1921;49.368;11.068;2023-09-19T05:44:36;97420.59;;;17.59;100.00
3812;BME280;1921;49.368;11.068;2023-09-19T05:47:03;97384.19;;;17.37;100.00
3812;BME280;1921;49.368;11.068;2023-09-19T05:49:29;97382.94;;;17.40;100.00
3812;BME280;1921;49.368;11.068;2023-09-19T05:51:55;97398.34;;;17.55;100.00
3812;BME280;1921;49.368;11.068;2023-09-19T05:54:22;97381.44;;;17.44;100.00
3812;BME280;1921;49.368;11.068;2023-09-19T05:56:48;97398.47;;;17.60;100.00
3812;BME280;1921;49.368;11.068;2023-09-19T05:59:19;97409.56;;;17.62;100.00
3812;BME280;1921;49.368;11.068;2023-09-19T06:01:45;97399.50;;;17.59;99.92
3812;BME280;1921;49.368;11.068;2023-09-19T06:04:11;97449.59;;;17.89;99.06
3812;BME280;1921;49.368;11.068;2023-09-19T06:06:37;97408.53;;;17.63;98.64
3812;BME280;1921;49.368;11.068;2023-09-19T06:09:06;97450.59;;;17.88;98.04
3812;BME280;1921;49.368;11.068;2023-09-19T06:11:36;97423.38;;;17.75;97.75
3812;BME280;1921;49.368;11.068;2023-09-19T06:14:03;97439.25;;;17.99;97.54
3812;BME280;1921;49.368;11.068;2023-09-19T06:16:30;97425.38;;;17.92;97.64
3812;BME280;1921;49.368;11.068;2023-09-19T06:18:57;97429.38;;;18.06;97.69
3812;BME280;1921;49.368;11.068;2023-09-19T06:21:26;97463.94;;;18.40;96.98
3812;BME280;1921;49.368;11.068;2023-09-19T06:23:53;97429.75;;;18.21;95.94
3812;BME280;1921;49.368;11.068;2023-09-19T06:26:19;97436.25;;;18.19;95.21
3812;BME280;1921;49.368;11.068;2023-09-19T06:28:45;97474.94;;;18.60;94.52
3812;BME280;1921;49.368;11.068;2023-09-19T06:31:11;97468.06;;;18.59;93.96
3812;BME280;1921;49.368;11.068;2023-09-19T06:33:37;97446.47;;;18.50;93.11
3812;BME280;1921;49.368;11.068;2023-09-19T06:36:05;97445.44;;;18.51;93.48
3812;BME280;1921;49.368;11.068;2023-09-19T06:38:32;97457.38;;;18.66;92.34
3812;BME280;1921;49.368;11.068;2023-09-19T06:41:02;97490.44;;;18.80;92.92
3812;BME280;1921;49.368;11.068;2023-09-19T06:43:32;97466.31;;;18.88;94.37
3812;BME280;1921;49.368;11.068;2023-09-19T06:46:00;97488.63;;;19.21;94.12
3812;BME280;1921;49.368;11.068;2023-09-19T06:48:26;97468.03;;;19.23;91.27
3812;BME280;1921;49.368;11.068;2023-09-19T06:50:56;97472.00;;;19.66;89.17
3812;BME280;1921;49.368;11.068;2023-09-19T06:53:24;97450.44;;;19.74;87.46
3812;BME280;1921;49.368;11.068;2023-09-19T06:55:51;97407.06;;;19.58;84.19
3812;BME280;1921;49.368;11.068;2023-09-19T06:58:16;97461.78;;;20.03;83.82
3812;BME280;1921;49.368;11.068;2023-09-19T07:00:42;97463.03;;;20.17;82.85
3812;BME280;1921;49.368;11.068;2023-09-19T07:03:10;97470.34;;;20.27;81.58
3812;BME280;1921;49.368;11.068;2023-09-19T07:05:38;97498.66;;;20.60;79.18
3812;BME280;1921;49.368;11.068;2023-09-19T07:08:08;97472.75;;;20.45;78.83
3812;BME280;1921;49.368;11.068;2023-09-19T07:10:36;97488.84;;;20.60;81.31
3812;BME280;1921;49.368;11.068;2023-09-19T07:13:06;97416.25;;;20.23;77.92
3812;BME280;1921;49.368;11.068;2023-09-19T07:15:35;97488.28;;;20.75;78.79
3812;BME280;1921;49.368;11.068;2023-09-19T07:18:14;97475.47;;;20.89;74.71
3812;BME280;1921;49.368;11.068;2023-09-19T07:20:42;97473.53;;;20.84;74.23
3812;BME280;1921;49.368;11.068;2023-09-19T07:23:15;97459.75;;;20.82;74.89
3812;BME280;1921;49.368;11.068;2023-09-19T07:25:42;97500.56;;;21.25;74.54
3812;BME280;1921;49.368;11.068;2023-09-19T07:28:07;97474.75;;;20.98;69.49
3812;BME280;1921;49.368;11.068;2023-09-19T07:30:36;97487.22;;;20.76;72.72
3812;BME280;1921;49.368;11.068;2023-09-19T07:33:03;97512.63;;;21.16;73.17
3812;BME280;1921;49.368;11.068;2023-09-19T07:35:30;97475.13;;;21.29;70.33
3812;BME280;1921;49.368;11.068;2023-09-19T07:37:56;97485.75;;;21.29;68.20
3812;BME280;1921;49.368;11.068;2023-09-19T07:40:24;97500.47;;;20.98;66.37
3812;BME280;1921;49.368;11.068;2023-09-19T07:42:52;97519.84;;;21.20;66.38
3812;BME280;1921;49.368;11.068;2023-09-19T07:45:18;97482.88;;;20.87;65.55
3812;BME280;1921;49.368;11.068;2023-09-19T07:47:50;97509.53;;;20.80;66.58
3812;BME280;1921;49.368;11.068;2023-09-19T07:50:18;97485.16;;;20.61;67.75
3812;BME280;1921;49.368;11.068;2023-09-19T07:52:50;97499.78;;;20.86;66.63
3812;BME280;1921;49.368;11.068;2023-09-19T07:55:20;97519.13;;;20.31;68.61
3812;BME280;1921;49.368;11.068;2023-09-19T07:57:49;97505.00;;;20.59;68.12
3812;BME280;1921;49.368;11.068;2023-09-19T08:00:15;97537.97;;;20.85;68.21
3812;BME280;1921;49.368;11.068;2023-09-19T08:02:41;97510.41;;;21.08;67.06
3812;BME280;1921;49.368;11.068;2023-09-19T08:05:09;97491.53;;;21.26;65.44
3812;BME280;1921;49.368;11.068;2023-09-19T08:07:39;97545.91;;;21.72;64.99
3812;BME280;1921;49.368;11.068;2023-09-19T08:10:07;97510.13;;;21.75;64.26
3812;BME280;1921;49.368;11.068;2023-09-19T08:12:42;97499.69;;;21.95;59.64
3812;BME280;1921;49.368;11.068;2023-09-19T08:15:18;97511.69;;;22.35;57.60
3812;BME280;1921;49.368;11.068;2023-09-19T08:17:48;97512.88;;;22.12;58.37
3812;BME280;1921;49.368;11.068;2023-09-19T08:20:14;97507.69;;;22.00;59.14
3812;BME280;1921;49.368;11.068;2023-09-19T08:22:51;97545.91;;;22.26;58.52
3812;BME280;1921;49.368;11.068;2023-09-19T08:25:18;97532.25;;;21.86;60.14
3812;BME280;1921;49.368;11.068;2023-09-19T08:27:48;97502.44;;;22.06;58.05
3812;BME280;1921;49.368;11.068;2023-09-19T08:30:16;97542.81;;;22.77;56.64
3812;BME280;1921;49.368;11.068;2023-09-19T08:32:43;97524.56;;;22.53;57.51
3812;BME280;1921;49.368;11.068;2023-09-19T08:35:10;97521.16;;;23.00;54.60
3812;BME280;1921;49.368;11.068;2023-09-19T08:37:36;97425.19;;;22.60;53.75
3812;BME280;1921;49.368;11.068;2023-09-19T08:40:02;97519.66;;;23.25;54.60
3812;BME280;1921;49.368;11.068;2023-09-19T08:42:28;97524.78;;;23.52;54.07
3812;BME280;1921;49.368;11.068;2023-09-19T08:44:55;97519.53;;;23.72;50.21
3812;BME280;1921;49.368;11.068;2023-09-19T08:47:34;97556.59;;;23.89;52.17
3812;BME280;1921;49.368;11.068;2023-09-19T08:50:17;97518.16;;;23.59;51.33
3812;BME280;1921;49.368;11.068;2023-09-19T08:52:46;97557.13;;;23.81;53.01
3812;BME280;1921;49.368;11.068;2023-09-19T08:55:14;97538.50;;;23.86;51.42
3812;BME280;1921;49.368;11.068;2023-09-19T08:57:47;97576.59;;;23.86;52.52
3812;BME280;1921;49.368;11.068;2023-09-19T09:00:16;97532.31;;;23.65;49.93
3812;BME280;1921;49.368;11.068;2023-09-19T09:02:44;97531.56;;;23.07;50.74
3812;BME280;1921;49.368;11.068;2023-09-19T09:05:10;97558.06;;;22.54;53.27
3812;BME280;1921;49.368;11.068;2023-09-19T09:07:37;97552.66;;;22.39;52.85
3812;BME280;1921;49.368;11.068;2023-09-19T09:10:05;97602.00;;;22.62;53.24
3812;BME280;1921;49.368;11.068;2023-09-19T09:12:30;97564.75;;;22.57;52.94
3812;BME280;1921;49.368;11.068;2023-09-19T09:14:56;97572.19;;;22.55;53.24
3812;BME280;1921;49.368;11.068;2023-09-19T09:17:26;97603.13;;;22.71;52.66
3812;BME280;1921;49.368;11.068;2023-09-19T09:19:55;97544.19;;;22.47;52.42
3812;BME280;1921;49.368;11.068;2023-09-19T09:22:21;97574.63;;;22.99;52.10
3812;BME280;1921;49.368;11.068;2023-09-19T09:24:54;97538.84;;;22.84;51.52
3812;BME280;1921;49.368;11.068;2023-09-19T09:27:23;97556.41;;;22.85;51.95
3812;BME280;1921;49.368;11.068;2023-09-19T09:29:51;97558.41;;;23.00;52.63
3812;BME280;1921;49.368;11.068;2023-09-19T09:32:28;97552.63;;;22.76;54.53
3812;BME280;1921;49.368;11.068;2023-09-19T09:35:03;97578.56;;;23.49;51.72
3812;BME280;1921;49.368;11.068;2023-09-19T09:37:35;97554.75;;;24.00;49.66
3812;BME280;1921;49.368;11.068;2023-09-19T09:40:04;97582.94;;;23.75;49.40
3812;BME280;1921;49.368;11.068;2023-09-19T09:42:42;97579.78;;;24.09;47.89
3812;BME280;1921;49.368;11.068;2023-09-19T09:45:20;97586.19;;;24.03;48.85
3812;BME280;1921;49.368;11.068;2023-09-19T09:48:15;97619.06;;;24.49;47.41
3812;BME280;1921;49.368;11.068;2023-09-19T09:50:48;97576.13;;;24.56;47.44
3812;BME280;1921;49.368;11.068;2023-09-19T09:56:03;97576.34;;;24.80;46.51
3812;BME280;1921;49.368;11.068;2023-09-19T09:58:38;97579.03;;;24.80;46.32
3812;BME280;1921;49.368;11.068;2023-09-19T10:01:14;97567.00;;;24.21;48.52
3812;BME280;1921;49.368;11.068;2023-09-19T10:03:42;97545.75;;;24.41;47.89
3812;BME280;1921;49.368;11.068;2023-09-19T10:06:16;97600.06;;;24.96;45.61
3812;BME280;1921;49.368;11.068;2023-09-19T10:09:08;97568.63;;;24.63;46.38
3812;BME280;1921;49.368;11.068;2023-09-19T10:11:44;97571.03;;;24.64;47.69
3812;BME280;1921;49.368;11.068;2023-09-19T10:14:16;97572.88;;;24.33;47.89
3812;BME280;1921;49.368;11.068;2023-09-19T10:16:49;97579.31;;;24.63;47.41
3812;BME280;1921;49.368;11.068;2023-09-19T10:19:24;97557.97;;;24.78;46.04
3812;BME280;1921;49.368;11.068;2023-09-19T10:21:56;97555.53;;;24.77;45.62
3812;BME280;1921;49.368;11.068;2023-09-19T10:24:22;97535.00;;;24.82;45.71
3812;BME280;1921;49.368;11.068;2023-09-19T10:26:50;97470.28;;;24.15;44.22
3812;BME280;1921;49.368;11.068;2023-09-19T10:29:17;97536.16;;;24.35;44.98
3812;BME280;1921;49.368;11.068;2023-09-19T10:31:44;97540.09;;;24.07;44.78
3812;BME280;1921;49.368;11.068;2023-09-19T10:34:14;97580.09;;;24.17;46.61
3812;BME280;1921;49.368;11.068;2023-09-19T10:36:44;97583.50;;;23.87;47.61
3812;BME280;1921;49.368;11.068;2023-09-19T10:39:13;97564.31;;;23.96;47.80
3812;BME280;1921;49.368;11.068;2023-09-19T10:41:44;97520.66;;;23.86;46.65
3812;BME280;1921;49.368;11.068;2023-09-19T10:44:14;97575.56;;;24.33;46.03
3812;BME280;1921;49.368;11.068;2023-09-19T10:46:39;97589.69;;;24.80;46.09
3812;BME280;1921;49.368;11.068;2023-09-19T10:49:06;97568.91;;;24.66;46.22
3812;BME280;1921;49.368;11.068;2023-09-19T10:51:41;97600.88;;;24.97;44.61
3812;BME280;1921;49.368;11.068;2023-09-19T10:54:19;97574.50;;;24.29;45.87
3812;BME280;1921;49.368;11.068;2023-09-19T10:56:52;97569.53;;;23.60;46.67
3812;BME280;1921;49.368;11.068;2023-09-19T10:59:21;97560.59;;;23.14;48.34
3812;BME280;1921;49.368;11.068;2023-09-19T11:01:55;97612.97;;;23.08;48.11
3812;BME280;1921;49.368;11.068;2023-09-19T11:09:54;97587.84;;;23.36;47.66
3812;BME280;1921;49.368;11.068;2023-09-19T11:14:55;97596.75;;;23.72;47.21
3812;BME280;1921;49.368;11.068;2023-09-19T11:30:41;97588.53;;;22.74;48.74
3812;BME280;1921;49.368;11.068;2023-09-19T11:33:29;97605.75;;;22.98;48.41
3812;BME280;1921;49.368;11.068;2023-09-19T11:36:15;97580.78;;;23.04;46.96
3812;BME280;1921;49.368;11.068;2023-09-19T11:46:27;97535.75;;;22.93;46.93
3812;BME280;1921;49.368;11.068;2023-09-19T11:48:54;97559.41;;;23.52;44.76
3812;BME280;1921;49.368;11.068;2023-09-19T11:51:20;97576.59;;;24.02;44.70
3812;BME280;1921;49.368;11.068;2023-09-19T11:53:57;97540.94;;;24.54;42.26
3812;BME280;1921;49.368;11.068;2023-09-19T11:56:26;97580.59;;;25.11;41.80
3812;BME280;1921;49.368;11.068;2023-09-19T11:58:57;97558.16;;;25.12;41.11
3812;BME280;1921;49.368;11.068;2023-09-19T12:01:32;97568.00;;;25.22;41.31
3812;BME280;1921;49.368;11.068;2023-09-19T12:04:01;97597.38;;;25.17;41.76
3812;BME280;1921;49.368;11.068;2023-09-19T12:06:29;97542.13;;;25.02;42.12
3812;BME280;1921;49.368;11.068;2023-09-19T12:08:55;97561.38;;;25.09;40.41
3812;BME280;1921;49.368;11.068;2023-09-19T12:11:23;97560.38;;;24.64;41.38
3812;BME280;1921;49.368;11.068;2023-09-19T12:13:51;97547.03;;;24.69;42.23
3812;BME280;1921;49.368;11.068;2023-09-19T12:16:20;97540.41;;;24.41;42.11
3812;BME280;1921;49.368;11.068;2023-09-19T12:18:50;97504.06;;;24.76;40.12
3812;BME280;1921;49.368;11.068;2023-09-19T12:21:30;97601.47;;;25.59;40.07
3812;BME280;1921;49.368;11.068;2023-09-19T12:26:41;97534.44;;;24.90;41.11
3812;BME280;1921;49.368;11.068;2023-09-19T12:29:20;97575.03;;;25.62;40.67
3812;BME280;1921;49.368;11.068;2023-09-19T12:31:56;97581.16;;;25.63;40.56
3812;BME280;1921;49.368;11.068;2023-09-19T12:34:33;97548.97;;;25.39;41.17
3812;BME280;1921;49.368;11.068;2023-09-19T12:37:05;97548.13;;;25.48;40.13
3812;BME280;1921;49.368;11.068;2023-09-19T12:39:42;97530.56;;;25.37;40.79
3812;BME280;1921;49.368;11.068;2023-09-19T12:42:10;97549.34;;;24.96;41.32
3812;BME280;1921;49.368;11.068;2023-09-19T12:44:42;97538.50;;;24.62;42.63
3812;BME280;1921;49.368;11.068;2023-09-19T12:47:14;97549.94;;;24.22;43.28
3812;BME280;1921;49.368;11.068;2023-09-19T12:50:16;97544.88;;;24.71;42.56
3812;BME280;1921;49.368;11.068;2023-09-19T12:52:52;97587.50;;;25.17;42.88
3812;BME280;1921;49.368;11.068;2023-09-19T12:55:30;97569.25;;;25.40;41.14
3812;BME280;1921;49.368;11.068;2023-09-19T12:58:14;97558.13;;;25.22;41.52
3812;BME280;1921;49.368;11.068;2023-09-19T13:00:45;97548.06;;;25.59;41.44
3812;BME280;1921;49.368;11.068;2023-09-19T13:03:15;97579.59;;;26.06;40.02
3812;BME280;1921;49.368;11.068;2023-09-19T13:05:49;97524.47;;;25.71;39.46
3812;BME280;1921;49.368;11.068;2023-09-19T13:08:22;97551.66;;;26.27;39.48
3812;BME280;1921;49.368;11.068;2023-09-19T13:11:12;97559.50;;;26.77;39.64
3812;BME280;1921;49.368;11.068;2023-09-19T13:13:51;97518.31;;;27.02;37.97
3812;BME280;1921;49.368;11.068;2023-09-19T13:16:21;97539.56;;;27.41;36.59
3812;BME280;1921;49.368;11.068;2023-09-19T13:18:55;97519.38;;;27.25;37.94
3812;BME280;1921;49.368;11.068;2023-09-19T13:21:32;97512.22;;;27.20;37.14
3812;BME280;1921;49.368;11.068;2023-09-19T13:24:22;97517.53;;;27.44;37.28
3812;BME280;1921;49.368;11.068;2023-09-19T13:26:51;97522.38;;;27.42;37.12
3812;BME280;1921;49.368;11.068;2023-09-19T13:29:17;97534.38;;;27.69;36.53
3812;BME280;1921;49.368;11.068;2023-09-19T13:31:51;97528.06;;;27.59;36.92
3812;BME280;1921;49.368;11.068;2023-09-19T13:34:21;97534.50;;;28.15;36.97
3812;BME280;1921;49.368;11.068;2023-09-19T13:36:47;97507.53;;;27.31;37.26
3812;BME280;1921;49.368;11.068;2023-09-19T13:39:15;97537.94;;;28.02;37.11
3812;BME280;1921;49.368;11.068;2023-09-19T13:41:47;97528.75;;;28.22;36.99
3812;BME280;1921;49.368;11.068;2023-09-19T13:44:14;97512.91;;;27.87;36.53
3812;BME280;1921;49.368;11.068;2023-09-19T13:46:41;97525.09;;;27.80;36.77
3812;BME280;1921;49.368;11.068;2023-09-19T13:49:11;97522.63;;;28.02;37.47
3812;BME280;1921;49.368;11.068;2023-09-19T13:51:37;97508.84;;;28.09;36.11
3812;BME280;1921;49.368;11.068;2023-09-19T13:54:03;97530.06;;;27.68;36.59
3812;BME280;1921;49.368;11.068;2023-09-19T13:56:28;97494.69;;;26.85;37.36
3812;BME280;1921;49.368;11.068;2023-09-19T13:58:55;97528.94;;;26.59;38.19
3812;BME280;1921;49.368;11.068;2023-09-19T14:01:21;97543.34;;;26.87;38.94
3812;BME280;1921;49.368;11.068;2023-09-19T14:03:47;97544.63;;;27.19;38.39
3812;BME280;1921;49.368;11.068;2023-09-19T14:06:15;97532.25;;;26.75;38.67
3812;BME280;1921;49.368;11.068;2023-09-19T14:08:42;97501.53;;;26.38;39.32
3812;BME280;1921;49.368;11.068;2023-09-19T14:11:09;97516.34;;;25.96;39.85